createdAt,value
2017-12-04T00:01:49.087Z,96488
2017-12-04T00:04:17.758Z,96492
2017-12-04T00:06:46.434Z,96498
2017-12-04T00:09:15.102Z,96498
2017-12-04T00:11:44.543Z,96505
2017-12-04T00:14:20.514Z,96543
2017-12-04T00:16:49.195Z,96510
2017-12-04T00:19:24.023Z,96503
2017-12-04T00:21:52.843Z,96411
2017-12-04T00:24:21.955Z,96505
2017-12-04T00:26:50.625Z,96494
2017-12-04T00:29:25.503Z,96494
2017-12-04T00:31:54.179Z,96506
2017-12-04T00:34:23.628Z,96501
2017-12-04T00:36:58.450Z,96507
2017-12-04T00:39:27.119Z,96512
2017-12-04T00:41:56.658Z,96518
2017-12-04T00:44:25.331Z,96527
2017-12-04T00:47:00.102Z,96519
2017-12-04T00:49:35.011Z,96523
2017-12-04T00:52:03.678Z,96521
2017-12-04T00:54:33.190Z,96526
2017-12-04T00:57:01.867Z,96529
2017-12-04T00:59:31.543Z,96531
2017-12-04T01:02:00.215Z,96517
2017-12-04T01:04:29.648Z,96522
2017-12-04T01:06:58.324Z,96529
2017-12-04T01:09:26.987Z,96532
2017-12-04T01:11:56.455Z,96529
2017-12-04T01:14:31.449Z,96531
2017-12-04T01:17:00.131Z,96530
2017-12-04T01:19:29.674Z,96539
2017-12-04T01:21:58.347Z,96543
2017-12-04T01:24:27.028Z,96554
2017-12-04T01:26:55.691Z,96547
2017-12-04T01:29:30.510Z,96549
2017-12-04T01:31:59.179Z,96548
2017-12-04T01:34:28.747Z,96546
2017-12-04T01:37:03.771Z,96549
2017-12-04T01:39:38.678Z,96555
2017-12-04T01:42:07.343Z,96555
2017-12-04T01:44:36.791Z,96546
2017-12-04T01:47:12.318Z,96552
2017-12-04T01:49:41.020Z,96546
2017-12-04T01:52:15.910Z,96560
2017-12-04T01:54:44.599Z,96556
2017-12-04T01:57:13.265Z,96556
2017-12-04T01:59:48.072Z,96549
2017-12-04T02:02:22.882Z,96550
2017-12-04T02:04:51.578Z,96552
2017-12-04T02:07:25.319Z,96546
2017-12-04T02:09:54.851Z,96547
2017-12-04T02:12:29.824Z,96558
2017-12-04T02:15:04.756Z,96551
2017-12-04T02:17:33.431Z,96558
2017-12-04T02:20:02.223Z,96553
2017-12-04T02:22:30.867Z,96554
2017-12-04T02:25:05.672Z,96547
2017-12-04T02:27:40.671Z,96552
2017-12-04T02:30:09.343Z,96543
2017-12-04T02:32:44.237Z,96549
2017-12-04T02:35:13.676Z,96547
2017-12-04T02:37:48.591Z,96549
2017-12-04T02:40:17.258Z,96550
2017-12-04T02:42:52.208Z,96556
2017-12-04T02:45:21.435Z,96560
2017-12-04T02:47:50.115Z,96561
2017-12-04T02:50:20.405Z,96557
2017-12-04T02:52:50.759Z,96553
2017-12-04T02:55:19.430Z,96560
2017-12-04T02:57:48.114Z,96558
2017-12-04T03:00:16.843Z,96562
2017-12-04T03:02:45.519Z,96565
2017-12-04T03:05:15.109Z,96559
2017-12-04T03:07:43.775Z,96557
2017-12-04T03:10:12.470Z,96563
2017-12-04T03:12:41.135Z,96559
2017-12-04T03:15:09.807Z,96565
2017-12-04T03:17:39.248Z,96563
2017-12-04T03:20:07.919Z,96563
2017-12-04T03:22:42.743Z,96557
2017-12-04T03:25:17.542Z,96567
2017-12-04T03:27:52.354Z,96565
2017-12-04T03:30:21.074Z,96567
2017-12-04T03:32:52.459Z,96568
2017-12-04T03:35:21.122Z,96565
2017-12-04T03:37:49.799Z,96575
2017-12-04T03:40:20.329Z,96570
2017-12-04T03:42:49.015Z,96570
2017-12-04T03:45:17.691Z,96577
2017-12-04T03:47:46.358Z,96577
2017-12-04T03:50:15.798Z,96575
2017-12-04T03:52:44.478Z,96571
2017-12-04T03:55:13.148Z,96586
2017-12-04T03:57:42.579Z,96580
2017-12-04T04:00:12.127Z,96584
2017-12-04T04:02:47.048Z,96591
2017-12-04T04:05:15.741Z,96584
2017-12-04T04:07:44.408Z,96582
2017-12-04T04:10:19.331Z,96596
2017-12-04T04:12:48.002Z,96593
2017-12-04T04:15:22.831Z,96597
2017-12-04T04:17:51.507Z,96600
2017-12-04T04:20:29.978Z,96599
2017-12-04T04:23:04.887Z,96599
2017-12-04T04:25:39.663Z,96607
2017-12-04T04:28:09.105Z,96601
2017-12-04T04:30:38.722Z,96595
2017-12-04T04:33:07.410Z,96594
2017-12-04T04:35:36.927Z,96605
2017-12-04T04:38:05.612Z,96611
2017-12-04T04:40:35.016Z,96605
2017-12-04T04:43:03.663Z,96612
2017-12-04T04:45:34.094Z,96604
2017-12-04T04:48:02.780Z,96603
2017-12-04T04:50:37.588Z,96609
2017-12-04T04:53:06.285Z,96513
2017-12-04T04:55:34.956Z,96613
2017-12-04T04:58:03.622Z,96602
2017-12-04T05:00:33.064Z,96607
2017-12-04T05:03:01.727Z,96605
2017-12-04T05:05:30.400Z,96599
2017-12-04T05:07:59.832Z,96617
2017-12-04T05:10:34.659Z,96614
2017-12-04T05:13:03.323Z,96627
2017-12-04T05:15:38.219Z,96638
2017-12-04T05:18:06.895Z,96626
2017-12-04T05:20:41.820Z,96638
2017-12-04T05:23:16.715Z,96635
2017-12-04T05:25:49.410Z,96640
2017-12-04T05:28:24.350Z,96646
2017-12-04T05:30:54.677Z,96642
2017-12-04T05:33:29.583Z,96647
2017-12-04T05:35:58.270Z,96650
2017-12-04T05:38:33.099Z,96663
2017-12-04T05:41:08.051Z,96651
2017-12-04T05:43:42.956Z,96660
2017-12-04T05:46:17.717Z,96660
2017-12-04T05:48:46.378Z,96662
2017-12-04T05:51:15.047Z,96658
2017-12-04T05:53:51.659Z,96663
2017-12-04T05:56:26.575Z,96672
2017-12-04T05:58:55.255Z,96681
2017-12-04T06:01:23.937Z,96665
2017-12-04T06:03:52.601Z,96658
2017-12-04T06:06:22.135Z,96663
2017-12-04T06:08:50.811Z,96649
2017-12-04T06:11:25.734Z,96656
2017-12-04T06:14:01.539Z,96675
2017-12-04T06:16:30.211Z,96676
2017-12-04T06:18:58.882Z,96679
2017-12-04T06:21:40.187Z,96676
2017-12-04T06:24:08.875Z,96673
2017-12-04T06:26:37.551Z,96681
2017-12-04T06:29:12.371Z,96679
2017-12-04T06:31:41.043Z,96690
2017-12-04T06:34:14.158Z,96684
2017-12-04T06:36:42.823Z,96683
2017-12-04T06:39:11.530Z,96697
2017-12-04T06:41:40.216Z,96687
2017-12-04T06:44:08.882Z,96694
2017-12-04T06:46:37.563Z,96701
2017-12-04T06:49:12.449Z,96702
2017-12-04T06:51:41.891Z,96606
2017-12-04T06:54:11.516Z,96708
2017-12-04T06:56:46.471Z,96708
2017-12-04T06:59:20.950Z,96710
2017-12-04T07:01:55.890Z,96709
2017-12-04T07:04:24.556Z,96708
2017-12-04T07:06:54.210Z,96721
2017-12-04T07:09:29.238Z,96719
2017-12-04T07:11:57.923Z,96739
2017-12-04T07:14:26.585Z,96730
2017-12-04T07:16:55.255Z,96732
2017-12-04T07:19:24.831Z,96734
2017-12-04T07:21:59.631Z,96733
2017-12-04T07:24:29.231Z,96745
2017-12-04T07:27:04.025Z,96750
2017-12-04T07:29:38.969Z,96744
2017-12-04T07:32:09.291Z,96762
2017-12-04T07:34:37.958Z,96756
2017-12-04T07:37:12.887Z,96752
2017-12-04T07:39:42.328Z,96758
2017-12-04T07:42:11.003Z,96755
2017-12-04T07:44:39.675Z,96754
2017-12-04T07:47:08.342Z,96754
2017-12-04T07:49:44.034Z,96749
2017-12-04T07:52:12.711Z,96761
2017-12-04T07:54:47.667Z,96762
2017-12-04T07:57:22.607Z,96761
2017-12-04T07:59:51.291Z,96790
2017-12-04T08:02:19.975Z,96756
2017-12-04T08:04:48.644Z,96761
2017-12-04T08:07:17.328Z,96754
2017-12-04T08:09:52.870Z,96761
2017-12-04T08:12:28.526Z,96760
2017-12-04T08:14:57.194Z,96759
2017-12-04T08:17:25.870Z,96752
2017-12-04T08:19:54.591Z,96751
2017-12-04T08:22:23.223Z,96751
2017-12-04T08:24:58.886Z,96769
2017-12-04T08:27:27.562Z,96776
2017-12-04T08:29:57.203Z,96770
2017-12-04T08:32:32.134Z,96770
2017-12-04T08:35:07.063Z,96769
2017-12-04T08:37:41.888Z,96769
2017-12-04T08:40:10.559Z,96778
2017-12-04T08:42:39.224Z,96786
2017-12-04T08:45:08.663Z,96797
2017-12-04T08:47:37.335Z,96790
2017-12-04T08:50:06.967Z,96793
2017-12-04T08:52:36.499Z,96804
2017-12-04T08:55:05.183Z,96801
2017-12-04T08:57:40.063Z,96815
2017-12-04T09:00:08.746Z,96807
2017-12-04T09:02:37.414Z,96804
2017-12-04T09:05:06.859Z,96808
2017-12-04T09:07:35.531Z,96798
2017-12-04T09:10:04.207Z,96819
2017-12-04T09:12:36.960Z,96820
2017-12-04T09:15:11.923Z,96815
2017-12-04T09:17:41.443Z,96819
2017-12-04T09:20:10.128Z,96825
2017-12-04T09:22:38.807Z,96824
2017-12-04T09:25:14.547Z,96742
2017-12-04T09:27:43.226Z,96827
2017-12-04T09:30:11.887Z,96831
2017-12-04T09:32:46.839Z,96841
2017-12-04T09:35:15.502Z,96844
2017-12-04T09:37:44.179Z,96835
2017-12-04T09:40:12.854Z,96838
2017-12-04T09:42:41.536Z,96863
2017-12-04T09:45:10.207Z,96830
2017-12-04T09:47:45.738Z,96834
2017-12-04T09:50:14.425Z,96844
2017-12-04T09:52:49.347Z,96831
2017-12-04T09:55:18.014Z,96817
2017-12-04T09:57:53.703Z,96827
2017-12-04T10:00:28.633Z,96827
2017-12-04T10:03:03.431Z,96833
2017-12-04T10:05:32.103Z,96830
2017-12-04T10:08:07.012Z,96836
2017-12-04T10:10:35.683Z,96843
2017-12-04T10:13:10.683Z,96836
2017-12-04T10:15:45.590Z,96842
2017-12-04T10:18:20.552Z,96841
2017-12-04T10:20:49.231Z,96844
2017-12-04T10:23:18.715Z,96841
2017-12-04T10:25:53.595Z,96836
2017-12-04T10:28:22.267Z,96830
2017-12-04T10:30:50.948Z,96833
2017-12-04T10:33:26.579Z,96833
2017-12-04T10:35:55.264Z,96836
2017-12-04T10:38:30.215Z,96838
2017-12-04T10:41:05.178Z,96844
2017-12-04T10:43:33.936Z,96871
2017-12-04T10:46:02.591Z,96829
2017-12-04T10:48:38.144Z,96839
2017-12-04T10:51:06.811Z,96836
2017-12-04T10:53:35.479Z,96836
2017-12-04T10:56:04.935Z,96835
2017-12-04T10:58:39.923Z,96833
2017-12-04T11:01:09.372Z,96833
2017-12-04T11:03:44.398Z,96833
2017-12-04T11:06:19.354Z,96831
2017-12-04T11:08:48.031Z,96825
2017-12-04T11:11:16.709Z,96832
2017-12-04T11:13:45.387Z,96831
2017-12-04T11:16:20.319Z,96833
2017-12-04T11:18:55.223Z,96819
2017-12-04T11:21:30.007Z,96819
2017-12-04T11:23:58.683Z,96828
2017-12-04T11:26:27.354Z,96824
2017-12-04T11:29:02.263Z,96823
2017-12-04T11:31:37.227Z,96814
2017-12-04T11:34:12.149Z,96821
2017-12-04T11:36:40.811Z,96812
2017-12-04T11:39:15.797Z,96810
2017-12-04T11:41:50.568Z,96808
2017-12-04T11:44:19.251Z,96810
2017-12-04T11:46:47.923Z,96808
2017-12-04T11:49:18.395Z,96823
2017-12-04T11:51:47.070Z,96822
2017-12-04T11:54:15.741Z,96822
2017-12-04T11:56:51.415Z,96825
2017-12-04T11:59:26.620Z,96820
2017-12-04T12:01:59.975Z,96824
2017-12-04T12:04:29.580Z,96819
2017-12-04T12:06:58.283Z,96827
2017-12-04T12:09:33.195Z,96827
2017-12-04T12:12:09.116Z,96833
2017-12-04T12:14:45.420Z,96842
2017-12-04T12:17:14.388Z,96839
2017-12-04T12:19:49.895Z,96838
2017-12-04T12:22:19.067Z,96858
2017-12-04T12:24:54.327Z,96838
2017-12-04T12:27:23.227Z,96836
2017-12-04T12:29:58.420Z,96826
2017-12-04T12:32:29.340Z,96832
2017-12-04T12:34:59.294Z,96832
2017-12-04T12:37:28.166Z,96834
2017-12-04T12:39:57.532Z,96829
2017-12-04T12:42:33.140Z,96832
2017-12-04T12:45:02.648Z,96824
2017-12-04T12:47:32.186Z,96830
2017-12-04T12:50:01.102Z,96832
2017-12-04T12:52:36.271Z,96819
2017-12-04T12:55:11.232Z,96828
2017-12-04T12:57:47.451Z,96832
2017-12-04T13:00:16.665Z,96830
2017-12-04T13:02:52.101Z,96820
2017-12-04T13:05:27.188Z,96827
2017-12-04T13:08:02.961Z,96832
2017-12-04T13:10:32.838Z,96830
2017-12-04T13:13:01.532Z,96827
2017-12-04T13:15:36.967Z,96824
2017-12-04T13:18:05.638Z,96831
2017-12-04T13:20:35.722Z,96827
2017-12-04T13:23:05.767Z,96837
2017-12-04T13:25:34.651Z,96835
2017-12-04T13:28:04.099Z,96835
2017-12-04T13:30:32.770Z,96846
2017-12-04T13:39:20.078Z,96842
2017-12-04T13:41:51.787Z,96841
2017-12-04T13:44:20.465Z,96842
2017-12-04T13:46:49.167Z,96849
2017-12-04T13:49:17.854Z,96848
2017-12-04T13:51:52.770Z,96845
2017-12-04T13:54:27.705Z,96756
2017-12-04T13:56:59.227Z,96839
2017-12-04T13:59:34.026Z,96833
2017-12-04T14:02:03.594Z,96839
2017-12-04T14:04:32.286Z,96842
2017-12-04T14:07:00.957Z,96845
2017-12-04T14:09:29.622Z,96848
2017-12-04T14:12:04.558Z,96844
2017-12-04T14:14:34.004Z,96844
2017-12-04T14:17:02.717Z,96862
2017-12-04T14:19:31.387Z,96850
2017-12-04T14:22:00.067Z,96861
2017-12-04T14:24:34.851Z,96876
2017-12-04T14:27:05.415Z,96863
2017-12-04T14:29:39.827Z,96863
2017-12-04T14:32:08.524Z,96864
2017-12-04T14:34:37.198Z,96858
2017-12-04T14:37:12.121Z,96874
2017-12-04T14:39:46.648Z,96872
2017-12-04T14:42:15.529Z,96880
2017-12-04T14:44:44.211Z,96869
2017-12-04T14:47:12.879Z,96865
2017-12-04T14:49:47.807Z,96858
2017-12-04T14:52:22.689Z,96851
2017-12-04T14:54:53.379Z,96849
2017-12-04T14:57:22.814Z,96844
2017-12-04T14:59:57.735Z,96843
2017-12-04T15:02:26.448Z,96845
2017-12-04T15:04:55.160Z,96851
2017-12-04T15:07:30.151Z,96857
2017-12-04T15:09:58.832Z,96863
2017-12-04T15:12:33.734Z,96865
2017-12-04T15:15:08.720Z,96879
2017-12-04T15:17:43.703Z,96877
2017-12-04T15:20:18.514Z,96883
2017-12-04T15:22:53.407Z,96885
2017-12-04T15:25:22.145Z,96888
2017-12-04T15:27:51.575Z,96892
2017-12-04T15:30:20.307Z,96890
2017-12-04T15:32:48.979Z,96895
2017-12-04T15:35:23.953Z,96895
2017-12-04T15:37:53.398Z,96897
2017-12-04T15:40:22.101Z,96912
2017-12-04T15:42:50.780Z,96916
2017-12-04T15:45:19.451Z,96921
2017-12-04T15:47:54.307Z,96937
2017-12-04T15:50:22.980Z,96936
2017-12-04T15:52:52.592Z,96936
2017-12-04T15:55:21.270Z,96944
2017-12-04T15:57:49.976Z,96936
2017-12-04T16:00:19.528Z,96934
2017-12-04T16:02:48.200Z,96940
2017-12-04T16:05:17.647Z,96942
2017-12-04T16:07:46.419Z,96932
2017-12-04T16:10:15.092Z,96945
2017-12-04T16:12:43.766Z,96932
2017-12-04T16:15:18.799Z,96947
2017-12-04T16:17:53.712Z,96946
2017-12-04T16:20:28.660Z,96949
2017-12-04T16:22:58.100Z,96953
2017-12-04T16:25:26.784Z,96953
2017-12-04T16:28:01.604Z,96956
2017-12-04T16:30:36.548Z,96961
2017-12-04T16:33:11.349Z,96956
2017-12-04T16:35:45.087Z,96964
2017-12-04T16:38:13.760Z,96964
2017-12-04T16:40:49.440Z,96960
2017-12-04T16:43:18.116Z,96963
2017-12-04T16:45:46.783Z,96974
2017-12-04T16:48:15.819Z,96976
2017-12-04T16:50:50.627Z,96975
2017-12-04T16:53:19.300Z,96967
2017-12-04T16:55:47.971Z,96975
2017-12-04T16:58:18.644Z,96972
2017-12-04T17:00:47.354Z,96972
2017-12-04T17:03:16.027Z,96976
2017-12-04T17:05:45.490Z,96979
2017-12-04T17:08:14.163Z,96981
2017-12-04T17:10:49.020Z,96985
2017-12-04T17:13:24.543Z,96988
2017-12-04T17:15:59.428Z,96985
2017-12-04T17:18:28.138Z,96989
2017-12-04T17:21:02.951Z,97008
2017-12-04T17:23:32.423Z,96989
2017-12-04T17:26:01.136Z,96993
2017-12-04T17:28:30.584Z,97002
2017-12-04T17:30:59.275Z,97004
2017-12-04T17:33:34.194Z,96993
2017-12-04T17:36:09.071Z,97009
2017-12-04T17:38:37.731Z,97002
2017-12-04T17:41:12.543Z,97014
2017-12-04T17:43:41.223Z,97021
2017-12-04T17:46:16.139Z,97027
2017-12-04T17:48:44.861Z,97025
2017-12-04T17:51:14.274Z,97038
2017-12-04T17:53:49.239Z,97030
2017-12-04T17:56:18.704Z,97035
2017-12-04T17:58:47.379Z,97035
2017-12-04T18:01:22.360Z,97036
2017-12-04T18:03:51.027Z,97041
2017-12-04T18:06:19.708Z,97043
2017-12-04T18:08:48.382Z,97050
2017-12-04T18:11:17.048Z,97038
2017-12-04T18:13:51.991Z,97046
2017-12-04T18:16:22.283Z,97041
2017-12-04T18:18:50.951Z,97039
2017-12-04T18:21:20.395Z,97046
2017-12-04T18:23:56.146Z,97043
2017-12-04T18:26:30.957Z,97030
2017-12-04T18:29:06.651Z,97046
2017-12-04T18:31:35.327Z,97047
2017-12-04T18:34:04.011Z,97047
2017-12-04T18:36:38.900Z,97054
2017-12-04T18:39:07.728Z,97052
2017-12-04T18:41:42.708Z,97050
2017-12-04T18:44:12.157Z,97053
2017-12-04T18:46:47.982Z,97058
2017-12-04T18:49:22.936Z,97065
2017-12-04T18:51:58.799Z,97062
2017-12-04T18:54:33.695Z,97069
2017-12-04T18:57:02.383Z,97072
2017-12-04T18:59:37.434Z,97073
2017-12-04T19:02:13.195Z,97067
2017-12-04T19:04:41.886Z,97076
2017-12-04T19:07:10.569Z,97081
2017-12-04T19:09:42.287Z,97082
2017-12-04T19:12:11.816Z,97079
2017-12-04T19:14:41.358Z,97087
2017-12-04T19:17:16.172Z,97079
2017-12-04T19:19:51.015Z,97089
2017-12-04T19:22:19.707Z,97083
2017-12-04T19:24:54.646Z,97095
2017-12-04T19:27:26.383Z,97091
2017-12-04T19:29:55.072Z,97095
2017-12-04T19:32:30.000Z,97092
2017-12-04T19:35:05.021Z,97093
2017-12-04T19:37:35.760Z,97099
2017-12-04T19:40:06.079Z,97101
2017-12-04T19:42:40.927Z,97112
2017-12-04T19:45:15.870Z,97108
2017-12-04T19:47:44.598Z,97122
2017-12-04T19:50:19.414Z,97112
2017-12-04T19:52:54.288Z,97115
2017-12-04T19:55:22.987Z,97117
2017-12-04T19:57:52.584Z,97122
2017-12-04T20:00:28.023Z,97132
2017-12-04T20:02:56.801Z,97117
2017-12-04T20:05:26.281Z,97120
2017-12-04T20:07:54.966Z,97125
2017-12-04T20:10:24.516Z,97113
2017-12-04T20:12:53.221Z,97115
2017-12-04T20:15:21.948Z,97117
2017-12-04T20:17:56.976Z,97125
2017-12-04T20:20:31.867Z,97120
2017-12-04T20:23:00.552Z,97122
2017-12-04T20:25:39.685Z,97117
2017-12-04T20:28:14.704Z,97127
2017-12-04T20:30:43.430Z,97128
2017-12-04T20:33:13.043Z,97118
2017-12-04T20:35:42.560Z,97110
2017-12-04T20:38:11.892Z,97125
2017-12-04T20:40:40.700Z,97126
2017-12-04T20:43:09.414Z,97159
2017-12-04T20:45:39.444Z,97131
2017-12-04T20:48:08.138Z,97126
2017-12-04T20:50:36.857Z,97126
2017-12-04T20:53:12.638Z,97127
2017-12-04T20:55:41.331Z,97133
2017-12-04T20:58:16.316Z,97145
2017-12-04T21:00:51.271Z,97141
2017-12-04T21:03:19.968Z,97152
2017-12-04T21:05:48.827Z,97145
2017-12-04T21:08:41.443Z,97147
2017-12-04T21:14:50.989Z,97170
2017-12-04T21:17:37.132Z,97164
2017-12-04T21:20:08.531Z,97182
2017-12-04T21:22:44.231Z,97174
2017-12-04T21:25:13.743Z,97179
2017-12-04T21:27:44.071Z,97174
2017-12-04T21:30:12.819Z,97183
2017-12-04T21:32:48.392Z,97185
2017-12-04T21:35:23.331Z,97183
2017-12-04T21:37:58.203Z,97190
2017-12-04T21:40:33.150Z,97193
2017-12-04T21:43:08.112Z,97189
2017-12-04T21:45:36.855Z,97187
2017-12-04T21:48:06.309Z,97191
2017-12-04T21:50:34.983Z,97191
2017-12-04T21:53:05.828Z,97187
2017-12-04T21:55:34.526Z,97200
2017-12-04T21:58:07.292Z,97197
2017-12-04T22:00:42.227Z,97199
2017-12-04T22:03:10.918Z,97187
2017-12-04T22:05:45.823Z,97193
2017-12-04T22:08:24.549Z,97203
2017-12-04T22:10:53.219Z,97209
2017-12-04T22:13:21.899Z,97209
2017-12-04T22:15:56.864Z,97214
2017-12-04T22:18:25.560Z,97210
2017-12-04T22:21:00.756Z,97225
2017-12-04T22:23:36.348Z,97226
2017-12-04T22:26:05.136Z,97224
2017-12-04T22:28:39.967Z,97235
2017-12-04T22:31:14.804Z,97230
2017-12-04T22:33:47.312Z,97234
2017-12-04T22:36:27.519Z,97237
2017-12-04T22:39:02.463Z,97238
2017-12-04T22:41:31.145Z,97220
2017-12-04T22:44:00.758Z,97237
2017-12-04T22:46:29.431Z,97227
2017-12-04T22:49:03.679Z,97230
2017-12-04T22:51:32.363Z,97231
2017-12-04T22:54:01.038Z,97228
2017-12-04T22:56:29.714Z,97243
2017-12-04T22:59:05.555Z,97241
2017-12-04T23:01:35.300Z,97254
2017-12-04T23:04:03.939Z,97234
2017-12-04T23:06:32.623Z,97238
2017-12-04T23:09:01.301Z,97245
2017-12-04T23:11:30.000Z,97258
2017-12-04T23:13:59.530Z,97259
2017-12-04T23:16:34.384Z,97268
2017-12-04T23:19:09.373Z,97265
2017-12-04T23:21:38.879Z,97262
2017-12-04T23:24:07.560Z,97268
2017-12-04T23:26:36.236Z,97252
2017-12-04T23:29:07.507Z,97266
2017-12-04T23:31:42.312Z,97268
2017-12-04T23:34:11.029Z,97255
2017-12-04T23:36:39.666Z,97264
2017-12-04T23:39:08.368Z,97264
2017-12-04T23:41:37.043Z,97272
2017-12-04T23:44:05.715Z,97278
2017-12-04T23:46:34.388Z,97277
2017-12-04T23:49:03.843Z,97276
2017-12-04T23:51:32.512Z,97280
2017-12-04T23:54:01.190Z,97280
2017-12-04T23:56:36.372Z,97268
2017-12-04T23:59:05.099Z,97278
